Time;durP1;ratioP1;P1;durP2;ratioP2;P2;SDS_P1;SDS_P2;PMS_P1;PMS_P2;Temp;Humidity;BMP_temperature;BMP_pressure;BME280_temperature;BME280_humidity;BME280_pressure;Samples;Min_cycle;Max_cycle;Signal;HPM_P1;HPM_P2
2021/12/01 00:01:36;;;;;;;1.87;1.77;;;;;;;;;;5048245;28;20238;-80
2021/12/01 00:04:03;;;;;;;2.00;1.90;;;;;;;;;;5052654;28;20285;-81
2021/12/01 00:06:30;;;;;;;2.00;1.90;;;;;;;;;;5037510;28;20230;-79
2021/12/01 00:08:57;;;;;;;2.20;2.10;;;;;;;;;;5035231;28;20214;-80
2021/12/01 00:11:26;;;;;;;2.10;2.00;;;;;;;;;;5034448;28;20231;-80
2021/12/01 00:13:53;;;;;;;1.87;1.87;;;;;;;;;;5034763;28;20702;-81
2021/12/01 00:16:20;;;;;;;2.00;1.90;;;;;;;;;;5033583;28;20268;-79
2021/12/01 00:18:47;;;;;;;2.00;1.90;;;;;;;;;;5033914;28;20217;-80
2021/12/01 00:21:15;;;;;;;1.70;1.70;;;;;;;;;;5033169;28;20237;-79
2021/12/01 00:23:42;;;;;;;2.00;1.90;;;;;;;;;;5036526;28;20215;-80
2021/12/01 00:26:09;;;;;;;2.40;2.30;;;;;;;;;;5038407;28;20243;-79
2021/12/01 00:28:37;;;;;;;2.30;2.20;;;;;;;;;;5041328;28;20206;-80
2021/12/01 00:31:05;;;;;;;2.50;2.30;;;;;;;;;;5043990;28;20722;-80
2021/12/01 00:33:32;;;;;;;2.00;1.90;;;;;;;;;;5054335;28;20230;-82
2021/12/01 00:35:59;;;;;;;2.23;2.10;;;;;;;;;;5054954;28;20241;-81
2021/12/01 00:38:28;;;;;;;2.30;2.20;;;;;;;;;;5058161;28;20203;-82
2021/12/01 00:40:55;;;;;;;2.20;2.10;;;;;;;;;;5056699;28;20242;-81
2021/12/01 00:43:24;;;;;;;2.30;2.20;;;;;;;;;;5056617;28;20267;-81
2021/12/01 00:45:56;;;;;;;2.20;2.10;;;;;;;;;;5056514;28;20248;-80
2021/12/01 00:48:24;;;;;;;2.60;2.40;;;;;;;;;;5057665;28;20233;-82
2021/12/01 00:50:51;;;;;;;2.47;2.30;;;;;;;;;;5056710;28;20235;-81
2021/12/01 00:53:18;;;;;;;3.00;2.80;;;;;;;;;;5057219;28;20229;-82
2021/12/01 00:55:45;;;;;;;1.80;1.73;;;;;;;;;;5056433;28;20237;-82
2021/12/01 00:58:13;;;;;;;2.67;2.47;;;;;;;;;;5057201;28;20214;-81
2021/12/01 01:00:41;;;;;;;2.90;2.70;;;;;;;;;;5056664;28;20237;-82
2021/12/01 01:03:09;;;;;;;2.90;2.70;;;;;;;;;;5076649;28;20285;-81
2021/12/01 01:05:37;;;;;;;2.33;2.23;;;;;;;;;;5076454;28;20224;-82
2021/12/01 01:08:04;;;;;;;4.10;3.70;;;;;;;;;;5075980;28;20194;-80
2021/12/01 01:10:46;;;;;;;2.00;1.90;;;;;;;;;;5076596;28;20293;-81
2021/12/01 01:16:23;;;;;;;2.23;2.13;;;;;;;;;;5075612;28;20247;-81
2021/12/01 01:18:53;;;;;;;2.27;2.17;;;;;;;;;;5076889;28;20194;-82
2021/12/01 01:21:21;;;;;;;2.70;2.50;;;;;;;;;;5075846;28;20249;-82
2021/12/01 01:23:48;;;;;;;5.60;2.37;;;;;;;;;;5076183;28;20206;-82
2021/12/01 01:26:17;;;;;;;2.83;2.03;;;;;;;;;;5075619;28;20238;-81
2021/12/01 01:28:44;;;;;;;2.80;2.60;;;;;;;;;;5076346;28;20209;-82
2021/12/01 01:31:12;;;;;;;3.17;2.97;;;;;;;;;;5075896;28;20252;-82
2021/12/01 01:33:39;;;;;;;2.57;2.40;;;;;;;;;;5076256;28;20198;-82
2021/12/01 01:36:07;;;;;;;2.80;2.40;;;;;;;;;;5073843;28;20256;-82
2021/12/01 01:38:34;;;;;;;3.13;2.93;;;;;;;;;;5075835;28;20213;-82
2021/12/01 01:41:01;;;;;;;2.60;2.40;;;;;;;;;;5075308;28;20242;-81
2021/12/01 01:43:28;;;;;;;2.57;2.47;;;;;;;;;;5075807;28;20198;-82
2021/12/01 01:45:56;;;;;;;2.03;1.93;;;;;;;;;;5075693;28;20234;-81
2021/12/01 01:48:29;;;;;;;2.50;2.40;;;;;;;;;;5076639;28;20193;-81
2021/12/01 01:50:56;;;;;;;2.50;2.40;;;;;;;;;;5075673;28;20241;-81
2021/12/01 01:53:26;;;;;;;2.57;2.37;;;;;;;;;;5068812;28;20230;-82
2021/12/01 01:55:55;;;;;;;2.30;2.20;;;;;;;;;;5058584;28;20312;-82
2021/12/01 01:58:22;;;;;;;2.10;2.00;;;;;;;;;;5050053;28;20206;-81
2021/12/01 02:00:51;;;;;;;2.00;1.90;;;;;;;;;;5060133;28;20320;-82
2021/12/01 02:03:19;;;;;;;2.20;2.10;;;;;;;;;;5049981;28;20199;-82
2021/12/01 02:05:46;;;;;;;2.13;2.03;;;;;;;;;;5051915;28;20238;-82
2021/12/01 02:08:18;;;;;;;2.33;2.23;;;;;;;;;;5050945;28;20205;-83
2021/12/01 02:10:49;;;;;;;3.03;2.83;;;;;;;;;;5033015;28;20235;-82
2021/12/01 02:13:16;;;;;;;2.40;2.30;;;;;;;;;;5048654;28;20233;-82
2021/12/01 02:15:44;;;;;;;2.27;2.17;;;;;;;;;;5072894;28;20233;-82
2021/12/01 02:18:11;;;;;;;3.07;2.77;;;;;;;;;;5074301;28;20213;-82
2021/12/01 02:20:40;;;;;;;2.87;2.67;;;;;;;;;;5073839;28;20242;-82
2021/12/01 02:23:07;;;;;;;3.50;3.30;;;;;;;;;;5073816;28;20198;-82
2021/12/01 02:25:34;;;;;;;3.40;3.20;;;;;;;;;;5064976;28;20207;-82
2021/12/01 02:28:01;;;;;;;2.87;2.67;;;;;;;;;;5054278;28;20207;-82
2021/12/01 02:30:28;;;;;;;3.57;2.97;;;;;;;;;;5054101;28;20226;-81
2021/12/01 02:32:55;;;;;;;2.80;2.63;;;;;;;;;;5054049;28;20226;-82
2021/12/01 02:35:22;;;;;;;3.17;2.93;;;;;;;;;;5053586;28;20238;-82
2021/12/01 02:37:51;;;;;;;2.87;2.67;;;;;;;;;;5053909;28;20246;-81
2021/12/01 02:40:18;;;;;;;3.23;2.93;;;;;;;;;;5053549;28;20241;-82
2021/12/01 02:42:45;;;;;;;3.10;2.90;;;;;;;;;;5053975;28;20199;-82
2021/12/01 02:45:12;;;;;;;2.47;2.37;;;;;;;;;;5053008;28;20227;-82
2021/12/01 02:47:39;;;;;;;3.07;2.87;;;;;;;;;;5053607;28;20191;-82
2021/12/01 02:50:09;;;;;;;3.23;2.93;;;;;;;;;;5053777;28;20245;-82
2021/12/01 02:52:36;;;;;;;3.67;2.93;;;;;;;;;;5053820;28;20241;-83
2021/12/01 02:55:07;;;;;;;2.93;2.73;;;;;;;;;;5052776;28;20231;-81
2021/12/01 02:57:41;;;;;;;2.60;2.40;;;;;;;;;;5053900;28;20217;-82
2021/12/01 03:00:09;;;;;;;2.70;2.60;;;;;;;;;;5052811;28;20238;-81
2021/12/01 03:02:37;;;;;;;2.47;2.27;;;;;;;;;;5069215;28;20222;-82
2021/12/01 03:05:04;;;;;;;2.47;2.30;;;;;;;;;;5072638;28;20235;-81
2021/12/01 03:07:32;;;;;;;2.10;2.00;;;;;;;;;;5074204;28;20212;-82
2021/12/01 03:09:59;;;;;;;3.10;2.90;;;;;;;;;;5073386;28;20237;-82
2021/12/01 03:12:29;;;;;;;2.90;2.70;;;;;;;;;;5073368;28;20312;-82
2021/12/01 03:14:56;;;;;;;2.80;2.60;;;;;;;;;;5072236;28;20244;-80
2021/12/01 03:17:23;;;;;;;3.63;3.27;;;;;;;;;;5073047;28;20209;-82
2021/12/01 03:19:50;;;;;;;3.17;2.97;;;;;;;;;;5072398;28;20260;-83
2021/12/01 03:22:17;;;;;;;2.87;2.67;;;;;;;;;;5073835;28;20229;-83
2021/12/01 03:24:44;;;;;;;3.37;3.10;;;;;;;;;;5071627;28;20229;-81
2021/12/01 03:27:12;;;;;;;3.57;3.27;;;;;;;;;;5073878;28;20228;-81
2021/12/01 03:29:40;;;;;;;3.23;3.03;;;;;;;;;;5074342;28;20241;-82
2021/12/01 03:32:08;;;;;;;4.00;3.70;;;;;;;;;;5073806;28;20241;-82
2021/12/01 03:34:35;;;;;;;3.53;3.33;;;;;;;;;;5072966;28;20233;-81
2021/12/01 03:37:03;;;;;;;3.80;3.50;;;;;;;;;;5072139;28;20210;-81
2021/12/01 03:39:30;;;;;;;3.40;3.10;;;;;;;;;;5073289;28;20289;-81
2021/12/01 03:41:57;;;;;;;3.40;3.10;;;;;;;;;;5073744;28;20206;-82
2021/12/01 03:44:24;;;;;;;2.73;2.53;;;;;;;;;;5073230;28;20209;-81
2021/12/01 03:46:52;;;;;;;3.93;3.57;;;;;;;;;;5073153;28;20216;-81
2021/12/01 03:49:20;;;;;;;3.20;3.00;;;;;;;;;;5073657;28;20206;-81
2021/12/01 03:51:47;;;;;;;3.67;3.37;;;;;;;;;;5073510;28;20233;-82
2021/12/01 03:54:14;;;;;;;3.33;3.13;;;;;;;;;;5072929;28;20247;-82
2021/12/01 03:56:41;;;;;;;2.90;2.70;;;;;;;;;;5072742;28;20198;-80
2021/12/01 03:59:08;;;;;;;3.23;2.93;;;;;;;;;;5075114;28;20282;-80
2021/12/01 04:01:35;;;;;;;3.03;2.83;;;;;;;;;;5069292;28;20228;-80
2021/12/01 04:04:03;;;;;;;4.00;3.60;;;;;;;;;;5056550;28;20202;-80
2021/12/01 04:06:30;;;;;;;3.20;2.90;;;;;;;;;;5055591;28;20237;-80
2021/12/01 04:08:58;;;;;;;4.07;3.70;;;;;;;;;;5057385;28;20478;-80
2021/12/01 04:11:25;;;;;;;2.43;2.23;;;;;;;;;;5055994;28;20261;-81
2021/12/01 04:13:56;;;;;;;2.40;2.30;;;;;;;;;;5054791;28;20222;-80
2021/12/01 04:16:23;;;;;;;3.93;3.53;;;;;;;;;;5055899;28;20234;-80
2021/12/01 04:18:50;;;;;;;4.83;3.90;;;;;;;;;;5054575;28;20207;-81
2021/12/01 04:21:20;;;;;;;3.63;3.30;;;;;;;;;;5056683;28;20722;-80
2021/12/01 04:23:47;;;;;;;3.73;3.43;;;;;;;;;;5056487;28;20221;-81
2021/12/01 04:26:19;;;;;;;2.83;2.63;;;;;;;;;;5056374;28;20234;-81
2021/12/01 04:28:46;;;;;;;2.33;2.23;;;;;;;;;;5056250;28;20207;-83
2021/12/01 04:31:13;;;;;;;3.33;3.13;;;;;;;;;;5056684;28;20667;-81
2021/12/01 04:33:40;;;;;;;2.20;1.90;;;;;;;;;;5056944;28;20298;-80
2021/12/01 04:36:08;;;;;;;4.07;3.63;;;;;;;;;;5053858;28;20231;-81
2021/12/01 04:38:36;;;;;;;2.77;2.57;;;;;;;;;;5056946;28;20207;-80
2021/12/01 04:41:05;;;;;;;2.93;2.73;;;;;;;;;;5052942;28;20238;-80
2021/12/01 04:43:33;;;;;;;5.57;3.10;;;;;;;;;;5053960;28;20269;-82
2021/12/01 04:46:00;;;;;;;3.97;3.60;;;;;;;;;;5053722;28;20288;-80
2021/12/01 04:48:28;;;;;;;3.20;2.90;;;;;;;;;;5053451;28;20690;-81
2021/12/01 04:50:55;;;;;;;3.17;2.63;;;;;;;;;;5050753;28;20273;-80
2021/12/01 04:53:22;;;;;;;2.97;2.77;;;;;;;;;;5051623;28;20226;-80
2021/12/01 04:55:51;;;;;;;3.03;2.77;;;;;;;;;;5040403;28;20234;-81
2021/12/01 04:58:18;;;;;;;3.37;3.07;;;;;;;;;;5040136;28;20229;-80
2021/12/01 05:00:49;;;;;;;2.67;2.47;;;;;;;;;;5047581;28;20247;-80
2021/12/01 05:03:16;;;;;;;3.30;2.60;;;;;;;;;;5050554;28;20206;-80
2021/12/01 05:05:43;;;;;;;2.93;2.70;;;;;;;;;;5044535;28;20250;-81
2021/12/01 05:08:10;;;;;;;3.10;2.80;;;;;;;;;;5050622;28;20207;-80
2021/12/01 05:10:37;;;;;;;4.50;3.17;;;;;;;;;;5049476;28;20235;-80
2021/12/01 05:13:06;;;;;;;2.63;2.47;;;;;;;;;;5043672;28;20222;-80
2021/12/01 05:15:33;;;;;;;2.57;2.47;;;;;;;;;;5037520;28;20245;-79
2021/12/01 05:18:00;;;;;;;2.53;2.33;;;;;;;;;;5034977;28;20210;-80
2021/12/01 05:20:27;;;;;;;2.80;2.60;;;;;;;;;;5034579;28;20234;-80
2021/12/01 05:22:54;;;;;;;2.90;2.70;;;;;;;;;;5037488;28;20560;-79
2021/12/01 05:25:21;;;;;;;2.67;2.43;;;;;;;;;;5034384;28;20245;-79
2021/12/01 05:27:48;;;;;;;3.17;2.17;;;;;;;;;;5034751;28;20218;-79
2021/12/01 05:30:18;;;;;;;1.87;1.77;;;;;;;;;;5034125;28;20234;-79
2021/12/01 05:32:47;;;;;;;3.57;3.03;;;;;;;;;;5035021;28;20238;-80
2021/12/01 05:35:14;;;;;;;3.53;2.63;;;;;;;;;;5034102;28;20235;-79
2021/12/01 05:37:41;;;;;;;3.73;2.67;;;;;;;;;;5034725;28;20210;-79
2021/12/01 05:40:08;;;;;;;2.70;2.50;;;;;;;;;;5034172;28;20250;-80
2021/12/01 05:42:35;;;;;;;2.70;2.50;;;;;;;;;;5039550;28;20226;-80
2021/12/01 05:45:02;;;;;;;2.97;2.67;;;;;;;;;;5039688;28;20301;-80
2021/12/01 05:47:31;;;;;;;3.90;3.20;;;;;;;;;;5039414;28;20241;-80
2021/12/01 05:49:58;;;;;;;2.73;2.50;;;;;;;;;;5038005;28;20242;-79
2021/12/01 05:52:25;;;;;;;2.10;2.00;;;;;;;;;;5039736;28;20233;-80
2021/12/01 05:54:52;;;;;;;3.00;2.80;;;;;;;;;;5038861;28;20245;-80
2021/12/01 05:57:19;;;;;;;2.37;2.27;;;;;;;;;;5040275;28;20217;-79
2021/12/01 05:59:46;;;;;;;2.10;2.00;;;;;;;;;;5039047;28;20288;-79
2021/12/01 06:02:13;;;;;;;2.87;2.70;;;;;;;;;;5039751;28;20227;-80
2021/12/01 06:04:41;;;;;;;3.97;3.57;;;;;;;;;;5038610;28;20242;-79
2021/12/01 06:07:08;;;;;;;3.10;2.90;;;;;;;;;;5037289;28;20213;-79
2021/12/01 06:09:35;;;;;;;3.00;2.80;;;;;;;;;;5036501;28;20241;-78
2021/12/01 06:12:03;;;;;;;4.90;3.00;;;;;;;;;;5033065;28;20242;-77
2021/12/01 06:14:30;;;;;;;2.33;2.23;;;;;;;;;;5032074;28;20235;-77
2021/12/01 06:16:59;;;;;;;4.93;3.27;;;;;;;;;;5032973;28;20632;-77
2021/12/01 06:19:26;;;;;;;3.17;2.87;;;;;;;;;;5033113;28;20207;-78
2021/12/01 06:21:54;;;;;;;4.87;3.50;;;;;;;;;;5041636;28;20227;-80
2021/12/01 06:24:21;;;;;;;5.20;3.57;;;;;;;;;;5046674;28;20573;-81
2021/12/01 06:26:48;;;;;;;4.80;2.90;;;;;;;;;;5045282;28;20207;-79
2021/12/01 06:29:15;;;;;;;3.40;3.10;;;;;;;;;;5038669;28;20237;-79
2021/12/01 06:31:42;;;;;;;3.73;3.10;;;;;;;;;;5040516;28;20231;-80
2021/12/01 06:34:09;;;;;;;3.07;2.70;;;;;;;;;;5039177;28;20253;-79
2021/12/01 06:36:36;;;;;;;2.27;2.17;;;;;;;;;;5035832;28;20214;-79
2021/12/01 06:39:06;;;;;;;3.37;3.07;;;;;;;;;;5032724;28;20206;-79
2021/12/01 06:41:33;;;;;;;2.70;2.50;;;;;;;;;;5036034;28;20231;-79
2021/12/01 06:44:00;;;;;;;2.77;2.53;;;;;;;;;;5037765;28;20206;-79
2021/12/01 06:46:28;;;;;;;3.50;3.20;;;;;;;;;;5036690;28;20227;-79
2021/12/01 06:48:56;;;;;;;2.40;2.30;;;;;;;;;;5036382;28;20203;-80
2021/12/01 06:51:23;;;;;;;3.03;2.80;;;;;;;;;;5032376;28;20702;-79
2021/12/01 06:53:50;;;;;;;3.20;2.90;;;;;;;;;;5039689;28;20230;-80
2021/12/01 06:56:19;;;;;;;3.37;3.03;;;;;;;;;;5040794;28;20627;-80
2021/12/01 06:58:46;;;;;;;3.30;3.00;;;;;;;;;;5035286;28;20302;-78
2021/12/01 07:01:14;;;;;;;2.93;2.73;;;;;;;;;;5032419;28;20243;-79
2021/12/01 07:03:41;;;;;;;3.83;3.10;;;;;;;;;;5036084;28;20206;-79
2021/12/01 07:06:08;;;;;;;1.83;1.80;;;;;;;;;;5040887;28;20238;-79
2021/12/01 07:08:36;;;;;;;4.80;2.30;;;;;;;;;;5042582;28;20206;-79
2021/12/01 07:11:03;;;;;;;3.17;2.73;;;;;;;;;;5038452;28;20257;-79
2021/12/01 07:13:33;;;;;;;2.20;2.10;;;;;;;;;;5035678;28;20227;-78
2021/12/01 07:16:00;;;;;;;4.23;3.10;;;;;;;;;;5034124;28;20246;-79
2021/12/01 07:18:28;;;;;;;3.10;2.73;;;;;;;;;;5036482;28;20572;-79
2021/12/01 07:20:55;;;;;;;2.30;2.20;;;;;;;;;;5036336;28;20246;-79
2021/12/01 07:23:22;;;;;;;2.00;1.90;;;;;;;;;;5033310;28;20207;-80
2021/12/01 07:25:49;;;;;;;3.10;2.50;;;;;;;;;;5031587;28;20265;-78
2021/12/01 07:28:16;;;;;;;2.43;2.23;;;;;;;;;;5033534;28;20207;-78
2021/12/01 07:30:45;;;;;;;2.40;2.30;;;;;;;;;;5026091;28;20242;-79
2021/12/01 07:33:12;;;;;;;2.10;2.00;;;;;;;;;;5033771;28;20253;-78
2021/12/01 07:35:39;;;;;;;2.00;1.90;;;;;;;;;;5035316;28;20234;-78
2021/12/01 07:38:06;;;;;;;2.10;2.00;;;;;;;;;;5035819;28;20214;-78
2021/12/01 07:40:33;;;;;;;2.20;2.00;;;;;;;;;;5035405;28;20244;-78
2021/12/01 07:43:00;;;;;;;2.00;1.90;;;;;;;;;;5036542;28;20206;-78
2021/12/01 07:45:29;;;;;;;3.17;1.80;;;;;;;;;;5035107;28;20234;-79
2021/12/01 07:47:57;;;;;;;2.20;2.00;;;;;;;;;;5036717;28;20289;-78
2021/12/01 07:50:25;;;;;;;1.73;1.63;;;;;;;;;;5053603;28;20710;-78
2021/12/01 07:52:52;;;;;;;2.03;1.90;;;;;;;;;;5055313;28;20216;-77
2021/12/01 07:55:19;;;;;;;1.93;1.87;;;;;;;;;;5054384;28;20237;-78
2021/12/01 07:57:46;;;;;;;2.47;1.90;;;;;;;;;;5054777;28;20213;-77
2021/12/01 08:00:14;;;;;;;1.90;1.80;;;;;;;;;;5054054;28;20635;-78
2021/12/01 08:02:42;;;;;;;2.40;2.13;;;;;;;;;;5055478;28;20228;-78
2021/12/01 08:05:11;;;;;;;2.50;1.87;;;;;;;;;;5054557;28;20324;-77
2021/12/01 08:07:39;;;;;;;2.10;2.00;;;;;;;;;;5055155;28;20210;-78
2021/12/01 08:10:06;;;;;;;2.10;2.00;;;;;;;;;;5054346;28;20600;-77
2021/12/01 08:12:34;;;;;;;2.73;2.00;;;;;;;;;;5054855;28;20238;-77
2021/12/01 08:15:01;;;;;;;1.80;1.70;;;;;;;;;;5054174;28;20242;-78
2021/12/01 08:17:28;;;;;;;2.43;2.33;;;;;;;;;;5055129;28;20550;-77
2021/12/01 08:19:57;;;;;;;2.50;2.30;;;;;;;;;;5054799;28;20234;-77
2021/12/01 08:22:26;;;;;;;1.80;1.70;;;;;;;;;;5055586;28;20226;-78
2021/12/01 08:24:54;;;;;;;1.90;1.80;;;;;;;;;;5054434;28;20265;-78
2021/12/01 08:27:21;;;;;;;1.50;1.50;;;;;;;;;;5054550;28;20678;-78
2021/12/01 08:29:48;;;;;;;2.47;2.27;;;;;;;;;;5035786;28;20234;-78
2021/12/01 08:32:15;;;;;;;2.20;2.10;;;;;;;;;;5034545;28;20239;-78
2021/12/01 08:34:47;;;;;;;2.37;2.17;;;;;;;;;;5033919;28;20246;-77
2021/12/01 08:37:16;;;;;;;1.80;1.70;;;;;;;;;;5034740;28;20264;-78
2021/12/01 08:39:45;;;;;;;2.20;2.10;;;;;;;;;;5034027;28;20280;-78
2021/12/01 08:42:12;;;;;;;1.93;1.63;;;;;;;;;;5035804;28;20226;-78
2021/12/01 08:44:44;;;;;;;1.90;1.80;;;;;;;;;;5033994;28;20239;-78
2021/12/01 08:47:12;;;;;;;2.20;1.80;;;;;;;;;;5033332;28;20213;-77
2021/12/01 08:49:39;;;;;;;2.10;1.70;;;;;;;;;;5034104;28;20404;-78
2021/12/01 08:52:09;;;;;;;1.90;1.80;;;;;;;;;;5033931;28;20223;-78
2021/12/01 08:54:39;;;;;;;1.97;1.87;;;;;;;;;;5032944;28;20262;-75
2021/12/01 08:57:08;;;;;;;1.80;1.70;;;;;;;;;;5034358;28;20240;-76
2021/12/01 08:59:37;;;;;;;1.73;1.53;;;;;;;;;;5033680;28;20234;-77
2021/12/01 09:02:04;;;;;;;1.60;1.50;;;;;;;;;;5033741;28;20215;-76
2021/12/01 09:04:31;;;;;;;1.70;1.70;;;;;;;;;;5033017;28;20242;-76
2021/12/01 09:06:59;;;;;;;1.80;1.70;;;;;;;;;;5034378;28;20214;-76
2021/12/01 09:09:26;;;;;;;1.73;1.63;;;;;;;;;;5032866;28;20552;-76
2021/12/01 09:11:54;;;;;;;1.73;1.67;;;;;;;;;;5033683;28;20230;-77
2021/12/01 09:14:24;;;;;;;1.60;1.50;;;;;;;;;;5033170;28;20581;-77
2021/12/01 09:16:52;;;;;;;1.60;1.50;;;;;;;;;;5034026;28;20206;-77
2021/12/01 09:19:20;;;;;;;1.90;1.80;;;;;;;;;;5033503;28;20206;-77
2021/12/01 09:21:47;;;;;;;2.27;2.00;;;;;;;;;;5017633;28;20788;-76
2021/12/01 09:24:15;;;;;;;1.80;1.70;;;;;;;;;;5034113;28;20210;-78
2021/12/01 09:26:42;;;;;;;2.10;1.90;;;;;;;;;;5034796;28;20265;-78
2021/12/01 09:29:10;;;;;;;1.83;1.73;;;;;;;;;;5034014;28;20195;-77
2021/12/01 09:31:38;;;;;;;1.80;1.70;;;;;;;;;;5034705;28;20227;-78
2021/12/01 09:34:05;;;;;;;1.80;1.70;;;;;;;;;;5035357;28;20226;-77
2021/12/01 09:36:32;;;;;;;1.80;1.70;;;;;;;;;;5033653;28;20241;-76
2021/12/01 09:38:59;;;;;;;2.00;1.80;;;;;;;;;;5033878;28;20219;-78
2021/12/01 09:41:26;;;;;;;1.77;1.67;;;;;;;;;;5028977;28;20238;-77
2021/12/01 09:43:54;;;;;;;2.83;1.83;;;;;;;;;;5034354;28;20202;-77
2021/12/01 09:46:21;;;;;;;1.70;1.60;;;;;;;;;;5033122;28;20238;-77
2021/12/01 09:48:50;;;;;;;1.80;1.70;;;;;;;;;;5034840;28;20222;-77
2021/12/01 09:51:18;;;;;;;3.27;1.90;;;;;;;;;;5033182;28;20265;-78
2021/12/01 09:53:45;;;;;;;2.23;1.70;;;;;;;;;;5033691;28;20578;-78
2021/12/01 09:56:12;;;;;;;1.80;1.70;;;;;;;;;;5032472;28;20242;-77
2021/12/01 09:58:42;;;;;;;1.73;1.63;;;;;;;;;;5034011;28;20214;-77
2021/12/01 10:01:11;;;;;;;1.90;1.80;;;;;;;;;;5032625;28;20722;-77
2021/12/01 10:03:39;;;;;;;1.80;1.70;;;;;;;;;;5033465;28;20626;-77
2021/12/01 10:06:10;;;;;;;1.83;1.73;;;;;;;;;;5032356;28;20576;-77
2021/12/01 10:08:38;;;;;;;2.00;1.90;;;;;;;;;;5032983;28;20241;-77
2021/12/01 10:11:07;;;;;;;1.57;1.47;;;;;;;;;;5031946;28;20235;-77
2021/12/01 10:13:37;;;;;;;1.77;1.70;;;;;;;;;;5033093;28;20230;-76
2021/12/01 10:16:05;;;;;;;1.90;1.80;;;;;;;;;;5032277;28;20242;-77
2021/12/01 10:18:36;;;;;;;1.73;1.70;;;;;;;;;;5033050;28;20290;-77
2021/12/01 10:21:06;;;;;;;1.97;1.87;;;;;;;;;;5031883;28;20250;-77
2021/12/01 10:23:35;;;;;;;1.40;1.40;;;;;;;;;;5032753;28;20234;-77
2021/12/01 10:26:10;;;;;;;2.70;1.60;;;;;;;;;;5031923;28;20246;-77
2021/12/01 10:28:38;;;;;;;1.90;1.80;;;;;;;;;;5032475;28;20237;-77
2021/12/01 10:31:05;;;;;;;1.67;1.67;;;;;;;;;;5032033;28;20248;-76
2021/12/01 10:33:32;;;;;;;1.37;1.37;;;;;;;;;;5032591;28;20202;-77
2021/12/01 10:36:00;;;;;;;1.43;1.43;;;;;;;;;;5031707;28;20237;-76
2021/12/01 10:38:28;;;;;;;1.40;1.40;;;;;;;;;;5032447;28;20214;-77
2021/12/01 10:41:07;;;;;;;3.37;1.73;;;;;;;;;;5031862;28;20262;-77
2021/12/01 10:43:42;;;;;;;1.70;1.60;;;;;;;;;;5032567;28;20210;-77
2021/12/01 10:46:11;;;;;;;1.57;1.30;;;;;;;;;;5032386;28;20245;-77
2021/12/01 10:48:40;;;;;;;1.30;1.30;;;;;;;;;;5032846;28;20217;-77
2021/12/01 10:51:07;;;;;;;1.47;1.47;;;;;;;;;;5031582;28;20250;-77
2021/12/01 10:53:34;;;;;;;1.60;1.50;;;;;;;;;;5042047;28;20234;-77
2021/12/01 10:56:02;;;;;;;1.40;1.40;;;;;;;;;;5031497;28;20609;-75
2021/12/01 10:58:35;;;;;;;1.70;1.60;;;;;;;;;;5032124;28;20211;-76
2021/12/01 11:01:03;;;;;;;1.40;1.40;;;;;;;;;;5031361;28;20242;-76
2021/12/01 11:03:32;;;;;;;2.00;1.53;;;;;;;;;;5032340;28;20214;-77
2021/12/01 11:06:08;;;;;;;1.73;1.63;;;;;;;;;;5031236;28;20313;-76
2021/12/01 11:08:37;;;;;;;1.70;1.53;;;;;;;;;;5031906;28;20257;-77
2021/12/01 11:11:08;;;;;;;1.90;1.70;;;;;;;;;;5030851;28;20242;-76
2021/12/01 11:13:37;;;;;;;1.73;1.63;;;;;;;;;;5030178;28;20292;-78
2021/12/01 11:16:07;;;;;;;1.60;1.53;;;;;;;;;;5030864;28;20234;-78
2021/12/01 11:18:35;;;;;;;1.30;1.30;;;;;;;;;;5031009;28;20686;-78
2021/12/01 11:21:03;;;;;;;1.93;1.70;;;;;;;;;;5030918;28;20246;-78
2021/12/01 11:23:32;;;;;;;1.30;1.30;;;;;;;;;;5031826;28;20210;-78
2021/12/01 11:26:01;;;;;;;1.60;1.50;;;;;;;;;;5031074;28;20254;-78
2021/12/01 11:28:30;;;;;;;1.37;1.37;;;;;;;;;;5033085;28;20203;-77
2021/12/01 11:30:59;;;;;;;1.50;1.50;;;;;;;;;;5033095;28;20249;-79
2021/12/01 11:33:27;;;;;;;1.60;1.50;;;;;;;;;;5035440;28;20694;-78
2021/12/01 11:35:55;;;;;;;1.53;1.50;;;;;;;;;;5034652;28;20246;-79
2021/12/01 11:38:22;;;;;;;2.00;1.90;;;;;;;;;;5035814;28;20210;-79
2021/12/01 11:40:50;;;;;;;1.63;1.53;;;;;;;;;;5035001;28;20245;-78
2021/12/01 11:43:19;;;;;;;1.93;1.30;;;;;;;;;;5033757;28;20875;-78
2021/12/01 11:45:46;;;;;;;1.30;1.30;;;;;;;;;;5032024;28;20230;-78
2021/12/01 11:48:16;;;;;;;1.30;1.30;;;;;;;;;;5032175;28;20659;-77
2021/12/01 11:50:47;;;;;;;1.40;1.40;;;;;;;;;;5030645;28;20246;-77
2021/12/01 11:53:20;;;;;;;1.27;1.27;;;;;;;;;;5030890;28;20214;-76
2021/12/01 11:55:56;;;;;;;1.57;1.50;;;;;;;;;;5030336;28;20242;-77
2021/12/01 11:58:42;;;;;;;1.30;1.30;;;;;;;;;;5031251;28;20268;-76
2021/12/01 12:01:29;;;;;;;1.50;1.50;;;;;;;;;;5028729;28;20246;-77
2021/12/01 12:04:11;;;;;;;1.60;1.50;;;;;;;;;;5031115;28;20213;-76
2021/12/01 12:06:45;;;;;;;1.70;1.60;;;;;;;;;;5030975;28;20726;-76
2021/12/01 12:09:13;;;;;;;1.47;1.37;;;;;;;;;;5030618;28;20216;-76
2021/12/01 12:11:41;;;;;;;1.60;1.50;;;;;;;;;;5028463;28;20715;-76
2021/12/01 12:14:10;;;;;;;1.20;1.20;;;;;;;;;;5030325;28;20581;-76
2021/12/01 12:16:37;;;;;;;1.60;1.50;;;;;;;;;;5031075;28;20596;-77
2021/12/01 12:19:04;;;;;;;1.30;1.30;;;;;;;;;;5032017;28;20222;-76
2021/12/01 12:21:38;;;;;;;1.40;1.40;;;;;;;;;;5034175;28;20241;-76
2021/12/01 12:24:10;;;;;;;1.63;1.53;;;;;;;;;;5034753;28;20214;-75
2021/12/01 12:26:38;;;;;;;1.70;1.60;;;;;;;;;;5034735;28;20222;-76
2021/12/01 12:29:07;;;;;;;1.60;1.50;;;;;;;;;;5034433;28;20268;-76
2021/12/01 12:31:34;;;;;;;1.20;1.20;;;;;;;;;;5034437;28;20240;-77
2021/12/01 12:34:03;;;;;;;1.30;1.30;;;;;;;;;;5034358;28;20218;-76
2021/12/01 12:36:39;;;;;;;1.50;1.50;;;;;;;;;;5033718;28;20601;-76
2021/12/01 12:39:09;;;;;;;2.30;1.73;;;;;;;;;;5034190;28;20598;-76
2021/12/01 12:41:51;;;;;;;2.43;1.60;;;;;;;;;;5034092;28;20234;-76
2021/12/01 12:44:30;;;;;;;1.20;1.20;;;;;;;;;;5032780;28;20210;-76
2021/12/01 12:47:01;;;;;;;1.40;1.40;;;;;;;;;;5040092;28;20229;-77
2021/12/01 12:49:37;;;;;;;1.30;1.30;;;;;;;;;;5039613;28;20265;-77
2021/12/01 12:52:19;;;;;;;1.60;1.50;;;;;;;;;;5038359;28;20234;-77
2021/12/01 12:54:48;;;;;;;1.63;1.63;;;;;;;;;;5037150;28;20230;-76
2021/12/01 12:57:16;;;;;;;1.70;1.60;;;;;;;;;;5024870;28;20211;-76
2021/12/01 12:59:44;;;;;;;1.93;1.83;;;;;;;;;;5032512;28;20238;-76
2021/12/01 13:02:31;;;;;;;1.87;1.70;;;;;;;;;;5037839;28;20215;-76
2021/12/01 13:04:59;;;;;;;1.70;1.60;;;;;;;;;;5032564;28;20235;-76
2021/12/01 13:07:41;;;;;;;2.10;1.60;;;;;;;;;;5033351;28;20215;-77
2021/12/01 13:10:14;;;;;;;1.60;1.50;;;;;;;;;;5032476;28;20234;-77
2021/12/01 13:12:45;;;;;;;1.50;1.40;;;;;;;;;;5032282;28;20325;-76
2021/12/01 13:15:19;;;;;;;1.77;1.67;;;;;;;;;;5032630;28;20230;-77
2021/12/01 13:17:47;;;;;;;2.00;1.90;;;;;;;;;;5033282;28;20210;-77
2021/12/01 13:20:14;;;;;;;1.47;1.47;;;;;;;;;;5032760;28;20608;-77
2021/12/01 13:22:41;;;;;;;1.70;1.60;;;;;;;;;;5033600;28;20226;-77
2021/12/01 13:25:09;;;;;;;1.70;1.60;;;;;;;;;;5032993;28;20238;-76
2021/12/01 13:27:45;;;;;;;1.33;1.33;;;;;;;;;;5034064;28;20246;-77
2021/12/01 13:30:12;;;;;;;1.53;1.53;;;;;;;;;;5032144;28;20328;-77
2021/12/01 13:32:39;;;;;;;1.50;1.40;;;;;;;;;;5033742;28;20237;-77
2021/12/01 13:35:06;;;;;;;1.30;1.30;;;;;;;;;;5032602;28;20249;-77
2021/12/01 13:37:34;;;;;;;1.67;1.57;;;;;;;;;;5033637;28;20207;-77
2021/12/01 13:40:08;;;;;;;2.33;1.67;;;;;;;;;;5032415;28;20706;-77
2021/12/01 13:42:35;;;;;;;1.40;1.40;;;;;;;;;;5033567;28;20235;-77
2021/12/01 13:45:03;;;;;;;2.00;1.60;;;;;;;;;;5022379;28;20672;-76
2021/12/01 13:47:34;;;;;;;1.57;1.47;;;;;;;;;;5032927;28;20206;-77
2021/12/01 13:50:03;;;;;;;2.07;1.47;;;;;;;;;;5033008;28;20309;-78
2021/12/01 13:52:31;;;;;;;1.43;1.40;;;;;;;;;;5035637;28;20226;-79
2021/12/01 13:55:12;;;;;;;1.70;1.60;;;;;;;;;;5035944;28;20630;-77
2021/12/01 13:57:40;;;;;;;1.80;1.70;;;;;;;;;;5035368;28;20207;-79
2021/12/01 14:00:10;;;;;;;1.70;1.60;;;;;;;;;;5036434;28;20239;-80
2021/12/01 14:02:37;;;;;;;1.30;1.30;;;;;;;;;;5035939;28;20725;-80
2021/12/01 14:05:05;;;;;;;1.50;1.40;;;;;;;;;;5034856;28;20238;-77
2021/12/01 14:07:42;;;;;;;1.43;1.43;;;;;;;;;;5033854;28;20261;-78
2021/12/01 14:10:27;;;;;;;1.40;1.40;;;;;;;;;;5032960;28;20238;-79
2021/12/01 14:12:55;;;;;;;1.90;1.70;;;;;;;;;;4996812;28;20229;-79
2021/12/01 14:15:27;;;;;;;1.23;1.23;;;;;;;;;;5036965;28;20284;-78
2021/12/01 14:17:54;;;;;;;1.33;1.23;;;;;;;;;;5037206;28;20640;-79
2021/12/01 14:20:23;;;;;;;2.30;1.57;;;;;;;;;;5036573;28;20241;-78
2021/12/01 14:22:50;;;;;;;2.77;1.70;;;;;;;;;;5036672;28;20203;-79
2021/12/01 14:25:20;;;;;;;1.63;1.53;;;;;;;;;;5035945;28;20261;-79
2021/12/01 14:27:47;;;;;;;1.13;1.13;;;;;;;;;;5036254;28;20297;-79
2021/12/01 14:30:17;;;;;;;1.60;1.50;;;;;;;;;;5036016;28;20241;-78
2021/12/01 14:32:46;;;;;;;1.60;1.50;;;;;;;;;;5036361;28;20223;-79
2021/12/01 14:35:14;;;;;;;2.37;1.60;;;;;;;;;;5035233;28;20257;-78
2021/12/01 14:37:41;;;;;;;1.80;1.70;;;;;;;;;;5036309;28;20203;-79
2021/12/01 14:40:09;;;;;;;1.20;1.20;;;;;;;;;;5035346;28;20264;-79
2021/12/01 14:42:41;;;;;;;1.37;1.37;;;;;;;;;;5036276;28;20750;-79
2021/12/01 14:45:09;;;;;;;1.77;1.67;;;;;;;;;;5035192;28;20238;-79
2021/12/01 14:47:36;;;;;;;1.47;1.47;;;;;;;;;;5036505;28;20199;-79
2021/12/01 14:50:05;;;;;;;1.80;1.70;;;;;;;;;;5034965;28;20242;-80
2021/12/01 14:52:34;;;;;;;1.60;1.50;;;;;;;;;;5037107;28;20223;-80
2021/12/01 14:55:04;;;;;;;2.20;1.60;;;;;;;;;;5035795;28;20238;-79